Time;durP1;ratioP1;P1;durP2;ratioP2;P2;SDS_P1;SDS_P2;PMS_P1;PMS_P2;Temp;Humidity;BMP_temperature;BMP_pressure;BME280_temperature;BME280_humidity;BME280_pressure;Samples;Min_cycle;Max_cycle;Signal;HPM_P1;HPM_P2
2023/11/17 00:00:21;;;;;;;3.30;0.20;;;7.30;99.90;;;;;;5014779;28;20744;-70
2023/11/17 00:02:47;;;;;;;3.30;0.20;;;7.40;99.90;;;;;;5012372;28;20451;-70
2023/11/17 00:05:12;;;;;;;3.20;0.20;;;7.40;99.90;;;;;;5027920;28;20896;-70
2023/11/17 00:07:38;;;;;;;3.20;0.20;;;7.30;99.90;;;;;;5031458;28;20964;-70
2023/11/17 00:10:04;;;;;;;3.30;0.30;;;7.20;99.90;;;;;;5031796;28;20746;-70
2023/11/17 00:12:32;;;;;;;3.90;0.60;;;7.20;99.90;;;;;;5031210;28;20422;-70
2023/11/17 00:14:57;;;;;;;3.30;0.40;;;7.20;99.90;;;;;;5030696;28;20399;-70
2023/11/17 00:17:23;;;;;;;3.40;0.40;;;7.20;99.90;;;;;;5031989;28;20873;-70
2023/11/17 00:19:48;;;;;;;3.50;0.50;;;7.20;99.90;;;;;;5031702;28;20877;-70
2023/11/17 00:22:14;;;;;;;3.20;0.20;;;7.30;99.90;;;;;;5032121;28;20407;-69
2023/11/17 00:24:40;;;;;;;3.30;0.30;;;7.30;99.90;;;;;;5032056;28;20391;-69
2023/11/17 00:27:06;;;;;;;3.20;0.20;;;7.20;99.90;;;;;;5031317;28;20402;-70
2023/11/17 00:29:31;;;;;;;3.20;0.20;;;7.30;99.90;;;;;;5030375;28;20399;-70
2023/11/17 00:31:57;;;;;;;3.22;0.22;;;7.30;96.20;;;;;;5030997;28;20422;-70
2023/11/17 00:34:23;;;;;;;3.20;0.20;;;7.20;1.00;;;;;;5031245;28;20482;-70
2023/11/17 00:36:49;;;;;;;3.20;0.20;;;7.00;79.40;;;;;;5031497;28;20407;-70
2023/11/17 00:39:14;;;;;;;3.20;0.20;;;7.00;99.90;;;;;;5030624;28;20728;-70
2023/11/17 00:41:41;;;;;;;3.30;0.20;;;7.10;99.90;;;;;;5031136;28;20402;-70
2023/11/17 00:44:07;;;;;;;3.33;0.30;;;7.20;99.90;;;;;;5031191;28;20502;-70
2023/11/17 00:46:33;;;;;;;3.20;0.20;;;7.20;58.60;;;;;;5031260;28;20449;-70
2023/11/17 00:48:59;;;;;;;3.20;0.20;;;7.10;1.00;;;;;;5015055;28;20409;-70
2023/11/17 00:51:25;;;;;;;3.20;0.20;;;7.10;1.00;;;;;;5024714;28;20460;-70
2023/11/17 00:53:51;;;;;;;3.20;0.20;;;7.00;1.00;;;;;;5031279;28;20805;-70
2023/11/17 00:56:18;;;;;;;3.20;0.20;;;7.00;1.00;;;;;;5031047;28;20392;-70
2023/11/17 00:58:45;;;;;;;3.30;0.40;;;7.00;1.00;;;;;;5031441;28;20417;-70
2023/11/17 01:01:11;;;;;;;3.20;0.20;;;6.90;1.00;;;;;;5031131;28;20399;-70
2023/11/17 01:03:37;;;;;;;3.30;0.20;;;6.90;1.00;;;;;;5030346;28;20434;-70
2023/11/17 01:06:02;;;;;;;3.20;0.20;;;6.90;99.90;;;;;;5022089;28;20396;-70
2023/11/17 01:08:28;;;;;;;3.30;0.30;;;7.00;1.00;;;;;;5023097;28;20400;-70
2023/11/17 01:10:54;;;;;;;3.25;0.20;;;7.00;99.90;;;;;;5030655;28;20439;-70
2023/11/17 01:13:21;;;;;;;3.50;0.40;;;7.00;99.90;;;;;;5030016;28;20423;-70
2023/11/17 01:15:47;;;;;;;3.20;0.20;;;7.00;99.90;;;;;;5030657;28;20735;-70
2023/11/17 01:18:14;;;;;;;3.20;0.20;;;7.00;99.90;;;;;;5030748;28;20430;-70
2023/11/17 01:20:40;;;;;;;3.40;0.40;;;7.00;52.00;;;;;;5030601;28;20821;-70
2023/11/17 01:23:07;;;;;;;3.20;0.20;;;7.00;99.90;;;;;;5030602;28;20387;-69
2023/11/17 01:25:34;;;;;;;3.30;0.20;;;7.00;99.90;;;;;;5030317;28;20410;-69
2023/11/17 01:28:01;;;;;;;3.20;0.20;;;7.10;99.90;;;;;;5029873;28;20405;-69
2023/11/17 01:30:30;;;;;;;3.20;0.20;;;7.10;99.90;;;;;;5030435;28;20392;-70
2023/11/17 01:32:57;;;;;;;3.40;0.30;;;7.10;99.90;;;;;;5030379;28;20445;-69
2023/11/17 01:35:23;;;;;;;3.20;0.20;;;7.00;99.90;;;;;;5028813;28;20406;-69
2023/11/17 01:37:49;;;;;;;3.20;0.20;;;7.00;99.90;;;;;;5030532;28;20395;-69
2023/11/17 01:40:22;;;;;;;3.20;0.20;;;7.20;99.90;;;;;;5030093;28;20904;-69
2023/11/17 01:42:48;;;;;;;3.20;0.20;;;7.10;66.10;;;;;;5010271;28;20397;-69
2023/11/17 01:45:14;;;;;;;3.20;0.20;;;7.00;39.20;;;;;;5031041;28;20745;-69
2023/11/17 01:47:42;;;;;;;3.20;0.20;;;7.00;99.90;;;;;;5030169;28;20802;-70
2023/11/17 01:50:11;;;;;;;3.20;0.20;;;7.00;99.90;;;;;;5030110;28;20407;-70
2023/11/17 01:52:42;;;;;;;4.20;0.70;;;7.00;1.00;;;;;;5030189;28;20423;-69
2023/11/17 01:55:09;;;;;;;3.20;0.20;;;6.90;99.90;;;;;;5029180;28;20410;-69
2023/11/17 01:57:38;;;;;;;3.20;0.30;;;7.00;99.90;;;;;;5014359;28;20406;-70
2023/11/17 02:00:06;;;;;;;3.30;0.40;;;6.90;99.90;;;;;;5029455;28;20399;-69
2023/11/17 02:02:33;;;;;;;3.20;0.20;;;6.90;99.90;;;;;;5010828;28;20396;-69
2023/11/17 02:04:59;;;;;;;3.30;0.30;;;6.70;1.00;;;;;;5024721;28;20407;-69
2023/11/17 02:07:32;;;;;;;3.20;0.20;;;6.70;1.00;;;;;;5029236;28;20606;-70
2023/11/17 02:10:13;;;;;;;3.20;0.20;;;6.80;1.00;;;;;;5029575;28;20407;-70
2023/11/17 02:12:54;;;;;;;3.50;0.50;;;6.90;1.00;;;;;;5029082;28;20487;-70
2023/11/17 02:15:25;;;;;;;3.20;0.20;;;7.00;99.90;;;;;;5029430;28;20403;-70
2023/11/17 02:17:52;;;;;;;3.20;0.20;;;7.00;99.90;;;;;;5029515;28;20406;-69
2023/11/17 02:20:25;;;;;;;3.30;0.30;;;7.00;99.90;;;;;;5029262;28;20391;-69
2023/11/17 02:22:57;;;;;;;3.20;0.20;;;7.10;99.90;;;;;;5029330;28;20406;-69
2023/11/17 02:25:47;;;;;;;3.20;0.30;;;7.10;99.90;;;;;;5027592;28;20739;-69
2023/11/17 02:28:34;;;;;;;3.20;0.30;;;7.10;79.00;;;;;;5030064;28;20407;-69
2023/11/17 02:31:25;;;;;;;3.20;0.20;;;7.00;99.90;;;;;;5029587;28;20410;-70
2023/11/17 02:33:51;;;;;;;3.10;0.20;;;7.10;99.90;;;;;;5029593;28;20485;-70
2023/11/17 02:36:17;;;;;;;3.20;0.20;;;7.00;99.90;;;;;;5028519;28;20469;-70
2023/11/17 02:39:12;;;;;;;3.20;0.20;;;7.00;99.90;;;;;;5029627;28;20418;-70
2023/11/17 02:41:42;;;;;;;3.50;0.80;;;7.10;99.90;;;;;;5029116;28;20486;-70
2023/11/17 02:44:12;;;;;;;3.30;0.40;;;7.10;99.90;;;;;;5029005;28;20493;-70
2023/11/17 02:46:44;;;;;;;3.40;0.30;;;7.10;99.90;;;;;;5027515;28;20493;-70
2023/11/17 02:49:21;;;;;;;3.20;0.25;;;7.10;1.00;;;;;;5029631;28;20399;-70
2023/11/17 02:51:51;;;;;;;3.25;0.30;;;7.10;1.00;;;;;;5029499;28;20399;-70
2023/11/17 02:54:24;;;;;;;4.00;0.70;;;7.20;1.00;;;;;;5028701;28;20399;-70
2023/11/17 02:56:51;;;;;;;3.10;0.20;;;7.20;1.00;;;;;;5026658;28;20855;-70
2023/11/17 02:59:19;;;;;;;3.20;0.20;;;7.40;1.00;;;;;;5010222;28;20404;-70
2023/11/17 03:01:45;;;;;;;3.20;0.20;;;7.30;1.00;;;;;;5022779;28;20403;-70
2023/11/17 03:04:15;;;;;;;4.50;0.60;;;7.40;99.90;;;;;;5029500;28;20399;-70
2023/11/17 03:06:48;;;;;;;3.20;0.28;;;7.40;99.90;;;;;;5029233;28;20946;-70
2023/11/17 03:09:22;;;;;;;3.20;0.20;;;7.40;99.90;;;;;;5029064;28;20394;-70
2023/11/17 03:11:55;;;;;;;3.30;0.45;;;7.20;51.70;;;;;;5020118;28;20408;-70
2023/11/17 03:14:24;;;;;;;3.20;0.20;;;7.20;99.90;;;;;;5027142;28;20434;-70
2023/11/17 03:16:54;;;;;;;3.20;0.20;;;7.10;99.90;;;;;;5029353;28;20419;-70
2023/11/17 03:19:20;;;;;;;3.60;0.40;;;7.10;99.90;;;;;;5028921;28;20421;-70
2023/11/17 03:21:46;;;;;;;3.20;0.20;;;7.10;1.00;;;;;;5028249;28;20391;-70
2023/11/17 03:24:17;;;;;;;3.50;0.40;;;7.10;1.00;;;;;;5028492;28;20402;-69
2023/11/17 03:26:46;;;;;;;3.40;0.40;;;7.20;99.90;;;;;;5029504;28;20407;-70
2023/11/17 03:29:14;;;;;;;3.40;0.60;;;7.20;99.90;;;;;;5033133;28;20395;-69
2023/11/17 03:31:52;;;;;;;3.20;0.20;;;7.30;99.90;;;;;;5031746;28;20761;-69
2023/11/17 03:34:29;;;;;;;3.20;0.20;;;7.20;99.90;;;;;;5032881;28;20407;-69
2023/11/17 03:36:57;;;;;;;3.20;0.20;;;7.20;99.90;;;;;;5032912;28;20411;-69
2023/11/17 03:39:23;;;;;;;3.10;0.20;;;7.10;1.00;;;;;;5031772;28;20878;-69
2023/11/17 03:41:49;;;;;;;3.30;0.47;;;7.20;1.00;;;;;;5031003;28;20430;-69
2023/11/17 03:44:15;;;;;;;3.40;0.50;;;7.10;1.00;;;;;;5031683;28;20886;-69
2023/11/17 03:46:46;;;;;;;3.40;0.60;;;7.10;1.00;;;;;;5031227;28;20422;-68
2023/11/17 03:49:12;;;;;;;3.20;0.40;;;7.20;1.00;;;;;;5031096;28;20753;-69
2023/11/17 03:51:37;;;;;;;3.40;0.60;;;7.20;99.90;;;;;;5031365;28;20407;-68
2023/11/17 03:54:05;;;;;;;3.20;0.20;;;7.20;1.00;;;;;;5018321;28;20416;-69
2023/11/17 03:56:34;;;;;;;3.10;0.20;;;7.20;99.90;;;;;;5013908;28;20396;-68
2023/11/17 03:58:59;;;;;;;3.10;0.20;;;7.20;99.90;;;;;;5024660;28;20421;-68
2023/11/17 04:01:25;;;;;;;3.10;0.30;;;7.20;99.90;;;;;;5032484;28;20801;-68
2023/11/17 04:03:52;;;;;;;3.20;0.30;;;7.10;99.90;;;;;;5031761;28;20410;-68
2023/11/17 04:06:20;;;;;;;3.63;0.98;;;7.00;99.90;;;;;;5013380;28;20459;-69
2023/11/17 04:08:46;;;;;;;3.20;0.20;;;7.00;99.90;;;;;;5032255;28;20407;-69
2023/11/17 04:11:16;;;;;;;3.20;0.40;;;7.10;99.90;;;;;;5032288;28;20405;-69
2023/11/17 04:13:42;;;;;;;3.20;0.20;;;7.00;99.90;;;;;;5030969;28;20465;-69
2023/11/17 04:16:10;;;;;;;3.20;0.30;;;7.10;99.90;;;;;;5031666;28;20838;-69
2023/11/17 04:18:39;;;;;;;3.20;0.30;;;7.10;99.90;;;;;;5028402;28;20895;-69
2023/11/17 04:21:07;;;;;;;3.20;0.20;;;7.20;99.90;;;;;;5029782;28;21160;-69
2023/11/17 04:23:37;;;;;;;3.20;0.20;;;7.10;29.30;;;;;;5031375;28;20491;-69
2023/11/17 04:26:03;;;;;;;3.30;0.30;;;7.10;1.00;;;;;;5031871;28;20456;-69
2023/11/17 04:28:29;;;;;;;3.20;0.30;;;7.00;99.90;;;;;;5031309;28;20497;-69
2023/11/17 04:30:55;;;;;;;3.20;0.20;;;7.00;99.90;;;;;;5029990;28;20418;-69
2023/11/17 04:33:20;;;;;;;3.50;0.30;;;6.90;99.90;;;;;;5014596;28;20474;-69
2023/11/17 04:35:46;;;;;;;3.10;0.20;;;6.90;99.90;;;;;;5027979;28;20397;-69
2023/11/17 04:38:14;;;;;;;3.15;0.20;;;6.90;99.90;;;;;;5021226;28;20419;-69
2023/11/17 04:40:39;;;;;;;3.20;0.25;;;6.90;1.00;;;;;;5028444;28;20399;-69
2023/11/17 04:43:06;;;;;;;3.10;0.20;;;6.80;99.90;;;;;;5030725;28;20457;-69
2023/11/17 04:45:36;;;;;;;3.20;0.20;;;6.70;1.00;;;;;;5018348;28;20964;-69
2023/11/17 04:48:04;;;;;;;3.20;0.20;;;6.80;1.00;;;;;;5029989;28;20402;-69
2023/11/17 04:50:31;;;;;;;3.30;0.40;;;7.00;99.90;;;;;;5030207;28;20418;-69
2023/11/17 04:52:57;;;;;;;3.50;0.50;;;7.00;99.90;;;;;;5030430;28;20504;-69
2023/11/17 04:55:22;;;;;;;3.20;0.30;;;6.90;99.90;;;;;;5029217;28;20450;-69
2023/11/17 04:57:48;;;;;;;3.20;0.20;;;7.00;99.90;;;;;;5029131;28;20498;-71
2023/11/17 05:00:16;;;;;;;3.80;0.40;;;6.90;99.90;;;;;;5030493;28;20399;-69
2023/11/17 05:02:42;;;;;;;3.30;0.40;;;6.90;99.90;;;;;;5030124;28;20430;-69
2023/11/17 05:05:11;;;;;;;3.10;0.20;;;7.00;99.90;;;;;;5030502;28;20446;-70
2023/11/17 05:07:39;;;;;;;3.13;0.20;;;7.00;99.90;;;;;;5020926;28;20444;-70
2023/11/17 05:10:07;;;;;;;3.10;0.20;;;7.00;5.40;;;;;;5019673;28;20730;-70
2023/11/17 05:12:33;;;;;;;3.20;0.20;;;6.80;99.90;;;;;;5026313;28;20427;-70
2023/11/17 05:14:58;;;;;;;3.10;0.20;;;6.90;99.90;;;;;;5030593;28;20914;-69
2023/11/17 05:17:28;;;;;;;3.70;0.30;;;6.80;99.90;;;;;;5023040;28;20396;-69
2023/11/17 05:19:53;;;;;;;3.30;0.40;;;6.90;99.90;;;;;;5030568;28;20468;-70
2023/11/17 05:22:19;;;;;;;3.10;0.20;;;7.00;99.90;;;;;;5028998;28;20474;-70
2023/11/17 05:24:44;;;;;;;3.30;0.40;;;6.90;99.90;;;;;;5031116;28;20698;-70
2023/11/17 05:27:10;;;;;;;3.20;0.23;;;7.00;76.50;;;;;;5027463;28;20434;-70
2023/11/17 05:29:36;;;;;;;3.20;0.30;;;7.10;99.90;;;;;;5027928;28;20402;-70
2023/11/17 05:32:03;;;;;;;5.50;0.60;;;7.00;20.10;;;;;;5030814;28;20395;-70
2023/11/17 05:34:28;;;;;;;3.10;0.20;;;6.90;19.40;;;;;;5030322;28;20399;-70
2023/11/17 05:36:54;;;;;;;3.10;0.20;;;6.90;99.90;;;;;;5023910;28;20434;-71
2023/11/17 05:39:20;;;;;;;3.10;0.20;;;7.00;99.90;;;;;;5022624;28;20409;-71
2023/11/17 05:41:46;;;;;;;3.10;0.20;;;7.00;99.90;;;;;;5024513;28;20398;-72
2023/11/17 05:44:13;;;;;;;3.20;0.30;;;6.90;99.90;;;;;;5017474;28;20408;-71
2023/11/17 05:46:38;;;;;;;3.20;0.30;;;7.00;99.90;;;;;;5019716;28;20460;-71
2023/11/17 05:49:05;;;;;;;3.30;0.50;;;7.00;99.90;;;;;;5022436;28;20416;-70
2023/11/17 05:51:30;;;;;;;3.10;0.20;;;7.00;45.60;;;;;;5018298;28;20873;-71
2023/11/17 05:53:56;;;;;;;3.10;0.20;;;7.10;99.90;;;;;;5029223;28;20430;-70
2023/11/17 05:56:22;;;;;;;3.20;0.30;;;7.10;1.00;;;;;;5027224;28;20391;-71
2023/11/17 05:58:49;;;;;;;3.15;0.20;;;6.90;1.00;;;;;;5013559;28;20899;-71
2023/11/17 06:01:14;;;;;;;3.10;0.20;;;6.90;99.90;;;;;;5023282;28;20413;-71
2023/11/17 06:03:40;;;;;;;3.20;0.30;;;7.00;99.90;;;;;;5015115;28;20421;-71
2023/11/17 06:06:05;;;;;;;3.20;0.30;;;7.00;1.00;;;;;;5020681;28;20403;-71
2023/11/17 06:08:31;;;;;;;3.20;0.20;;;7.00;99.90;;;;;;5025984;28;20405;-71
2023/11/17 06:10:58;;;;;;;3.10;0.20;;;7.00;99.90;;;;;;5021878;28;20766;-71
2023/11/17 06:13:24;;;;;;;3.10;0.20;;;7.00;1.00;;;;;;5025329;28;20431;-71
2023/11/17 06:15:49;;;;;;;3.20;0.30;;;7.10;31.50;;;;;;5020288;28;20403;-71
2023/11/17 06:18:16;;;;;;;3.20;0.30;;;7.10;1.00;;;;;;5027009;28;20434;-70
2023/11/17 06:20:42;;;;;;;3.10;0.20;;;7.00;99.90;;;;;;5027308;28;20482;-71
2023/11/17 06:23:10;;;;;;;3.10;0.20;;;7.00;1.00;;;;;;5029332;28;20510;-70
2023/11/17 06:25:36;;;;;;;3.10;0.20;;;6.90;1.00;;;;;;5028823;28;20399;-71
2023/11/17 06:28:03;;;;;;;3.70;0.50;;;7.10;1.00;;;;;;5028701;28;20395;-72
2023/11/17 06:30:29;;;;;;;3.20;0.30;;;7.10;99.90;;;;;;5029547;28;20383;-71
2023/11/17 06:32:55;;;;;;;3.20;0.20;;;7.20;99.90;;;;;;5027338;28;20455;-71
2023/11/17 06:35:21;;;;;;;3.30;0.23;;;7.20;99.90;;;;;;5027546;28;20446;-71
2023/11/17 06:37:46;;;;;;;3.40;0.30;;;7.10;99.90;;;;;;5029967;28;20453;-71
2023/11/17 06:40:12;;;;;;;3.20;0.20;;;7.10;99.90;;;;;;5028938;28;20479;-71
2023/11/17 06:42:39;;;;;;;3.30;0.40;;;7.20;99.90;;;;;;5016320;28;20463;-71
2023/11/17 06:45:06;;;;;;;3.28;0.28;;;7.20;99.90;;;;;;5017766;28;20407;-71
2023/11/17 06:47:32;;;;;;;3.20;0.30;;;7.10;99.90;;;;;;5028073;28;20483;-71
2023/11/17 06:49:58;;;;;;;3.20;0.20;;;7.10;99.90;;;;;;5028058;28;20392;-71
2023/11/17 06:52:24;;;;;;;3.30;0.50;;;7.10;99.90;;;;;;5028567;28;20473;-71
2023/11/17 06:54:49;;;;;;;3.20;0.20;;;7.10;99.90;;;;;;5028675;28;20449;-71
2023/11/17 06:57:15;;;;;;;3.20;0.20;;;7.20;99.90;;;;;;5029649;28;20383;-70
2023/11/17 06:59:40;;;;;;;3.30;0.40;;;7.30;99.90;;;;;;5029151;28;20441;-71
2023/11/17 07:02:07;;;;;;;3.20;0.20;;;7.40;99.90;;;;;;5031971;28;20443;-71
2023/11/17 07:04:32;;;;;;;3.50;0.50;;;7.20;99.90;;;;;;5030797;28;20433;-71
2023/11/17 07:06:59;;;;;;;3.50;0.60;;;7.20;99.90;;;;;;5027396;28;20891;-71
2023/11/17 07:09:30;;;;;;;4.50;0.60;;;7.30;99.90;;;;;;5022868;28;20452;-71
2023/11/17 07:11:59;;;;;;;3.20;0.20;;;7.30;99.90;;;;;;5022580;28;20479;-71
2023/11/17 07:14:25;;;;;;;3.20;0.20;;;7.30;99.90;;;;;;5033039;28;20438;-71
2023/11/17 07:16:52;;;;;;;3.20;0.20;;;7.30;99.90;;;;;;5033228;28;20415;-71
2023/11/17 07:19:18;;;;;;;3.80;0.40;;;7.20;99.90;;;;;;5032691;28;20418;-71
2023/11/17 07:21:45;;;;;;;4.50;0.50;;;7.20;1.00;;;;;;5033738;28;20545;-70
2023/11/17 07:24:11;;;;;;;3.20;0.30;;;7.30;1.00;;;;;;5028088;28;20393;-71
2023/11/17 07:26:37;;;;;;;3.13;0.20;;;7.30;1.00;;;;;;5013042;28;20736;-71
2023/11/17 07:29:04;;;;;;;3.20;0.28;;;7.30;1.00;;;;;;5013174;28;20520;-70
2023/11/17 07:31:39;;;;;;;3.15;0.20;;;7.20;1.00;;;;;;5013476;28;20798;-70
2023/11/17 07:34:09;;;;;;;3.60;0.50;;;7.10;1.00;;;;;;5014917;28;20558;-70
2023/11/17 07:36:38;;;;;;;3.15;0.20;;;7.20;1.00;;;;;;5012897;28;20393;-70
2023/11/17 07:39:04;;;;;;;3.20;0.30;;;7.10;1.00;;;;;;5013434;28;20546;-70
2023/11/17 07:41:30;;;;;;;3.40;0.60;;;7.20;18.20;;;;;;5019734;28;20395;-70
2023/11/17 07:43:59;;;;;;;3.20;0.20;;;7.20;1.00;;;;;;5032862;28;20399;-70
2023/11/17 07:46:27;;;;;;;3.60;0.50;;;7.40;1.00;;;;;;5032487;28;20444;-70
2023/11/17 07:48:53;;;;;;;3.20;0.20;;;7.50;1.00;;;;;;5032893;28;20474;-69
2023/11/17 07:51:19;;;;;;;3.40;0.70;;;7.60;1.00;;;;;;5032306;28;20395;-68
2023/11/17 07:53:45;;;;;;;4.50;0.70;;;7.60;99.90;;;;;;5032607;28;20794;-68
2023/11/17 07:56:11;;;;;;;3.50;0.50;;;7.60;99.90;;;;;;5032325;28;20428;-68
2023/11/17 07:58:37;;;;;;;3.30;0.28;;;7.70;99.90;;;;;;5032270;28;20419;-68
2023/11/17 08:01:03;;;;;;;3.20;0.20;;;7.60;99.90;;;;;;5032637;28;20391;-68
2023/11/17 08:03:29;;;;;;;3.40;0.40;;;7.60;99.90;;;;;;5032472;28;20391;-68
2023/11/17 08:05:56;;;;;;;3.30;0.30;;;7.70;99.90;;;;;;5032602;28;20894;-68
2023/11/17 08:08:22;;;;;;;3.30;0.30;;;7.80;99.90;;;;;;5032049;28;20430;-68
2023/11/17 08:10:48;;;;;;;3.80;0.60;;;7.60;99.90;;;;;;5032381;28;20789;-70
2023/11/17 08:13:15;;;;;;;3.30;0.25;;;7.40;99.90;;;;;;5031888;28;20510;-71
2023/11/17 08:15:41;;;;;;;3.70;0.77;;;7.50;99.90;;;;;;5024575;28;20396;-68
2023/11/17 08:18:08;;;;;;;3.60;0.30;;;7.60;99.90;;;;;;5012197;28;20408;-69
2023/11/17 08:20:38;;;;;;;3.30;0.30;;;7.70;99.90;;;;;;5012413;28;20458;-69
2023/11/17 08:23:04;;;;;;;3.70;0.70;;;7.60;99.90;;;;;;5012219;28;20397;-69
2023/11/17 08:25:30;;;;;;;3.90;1.20;;;7.60;99.90;;;;;;5010955;28;20477;-68
2023/11/17 08:27:57;;;;;;;3.20;0.20;;;7.70;99.90;;;;;;5012299;28;20405;-68
2023/11/17 08:30:23;;;;;;;3.30;0.30;;;7.70;99.90;;;;;;5012163;28;20417;-69
2023/11/17 08:32:48;;;;;;;3.30;0.30;;;7.80;99.90;;;;;;5012043;28;20832;-69
2023/11/17 08:35:14;;;;;;;4.70;1.00;;;7.70;99.90;;;;;;5012801;28;20859;-69
2023/11/17 08:37:40;;;;;;;4.60;1.20;;;7.70;99.90;;;;;;5012426;28;20863;-69
2023/11/17 08:40:09;;;;;;;3.20;0.20;;;7.70;99.90;;;;;;5012036;28;20400;-69
2023/11/17 08:42:39;;;;;;;3.30;0.35;;;7.70;99.90;;;;;;5012370;28;20393;-69
2023/11/17 08:45:08;;;;;;;3.30;0.20;;;7.60;99.90;;;;;;5012011;28;20381;-69
2023/11/17 08:47:36;;;;;;;5.40;0.50;;;7.60;99.90;;;;;;5012303;28;20401;-68
2023/11/17 08:50:02;;;;;;;3.30;0.40;;;7.50;99.90;;;;;;5011705;28;20404;-69
2023/11/17 08:52:33;;;;;;;3.90;0.70;;;7.50;99.90;;;;;;5011851;28;20729;-69
2023/11/17 08:54:58;;;;;;;3.20;0.20;;;7.30;99.90;;;;;;5012082;28;20922;-69
2023/11/17 08:57:25;;;;;;;3.20;0.20;;;7.40;1.00;;;;;;5011789;28;20484;-69
2023/11/17 08:59:50;;;;;;;3.20;0.20;;;7.40;99.90;;;;;;5011450;28;20397;-69
2023/11/17 09:02:16;;;;;;;3.33;0.40;;;7.40;1.00;;;;;;5012273;28;20733;-69
2023/11/17 09:04:43;;;;;;;3.30;0.30;;;7.60;99.90;;;;;;5022090;28;20400;-69
2023/11/17 09:07:09;;;;;;;3.28;0.30;;;7.60;99.90;;;;;;5031651;28;20462;-69
2023/11/17 09:09:36;;;;;;;3.53;0.68;;;7.60;99.90;;;;;;5031497;28;20417;-69
2023/11/17 09:12:04;;;;;;;3.30;0.30;;;7.60;99.90;;;;;;5031021;28;20399;-69
2023/11/17 09:14:30;;;;;;;3.37;0.27;;;7.70;99.90;;;;;;5030751;28;20414;-69
2023/11/17 09:16:55;;;;;;;3.35;0.45;;;7.60;99.90;;;;;;5025235;28;20752;-69
2023/11/17 09:19:21;;;;;;;3.60;0.80;;;7.50;99.90;;;;;;5011243;28;20444;-69
2023/11/17 09:21:46;;;;;;;3.65;0.93;;;7.50;99.90;;;;;;5011592;28;20385;-69
2023/11/17 09:24:12;;;;;;;3.30;0.40;;;7.60;99.90;;;;;;5009505;28;20480;-69
2023/11/17 09:26:38;;;;;;;4.90;0.60;;;7.50;99.90;;;;;;5010142;28;20388;-70
2023/11/17 09:29:03;;;;;;;3.50;0.60;;;7.50;99.90;;;;;;5010774;28;20939;-69
2023/11/17 09:31:29;;;;;;;3.30;0.30;;;7.50;99.90;;;;;;5011142;28;20376;-69
2023/11/17 09:33:54;;;;;;;3.20;0.20;;;7.60;99.90;;;;;;5010988;28;20474;-69
2023/11/17 09:36:20;;;;;;;3.30;0.30;;;7.60;99.90;;;;;;5011022;28;20378;-69
2023/11/17 09:38:46;;;;;;;3.40;0.40;;;7.70;99.90;;;;;;5011481;28;20423;-70
2023/11/17 09:41:13;;;;;;;3.60;0.70;;;7.70;99.90;;;;;;5010305;28;20654;-70
2023/11/17 09:43:43;;;;;;;4.40;0.70;;;7.70;99.90;;;;;;5010500;28;20399;-70
2023/11/17 09:46:11;;;;;;;3.40;0.55;;;7.70;99.90;;;;;;5010945;28;20747;-69
2023/11/17 09:48:38;;;;;;;4.50;1.00;;;7.80;99.90;;;;;;5010481;28;20440;-70
2023/11/17 09:51:04;;;;;;;3.37;0.43;;;7.90;99.90;;;;;;5010457;28;20392;-70
2023/11/17 09:53:33;;;;;;;3.97;0.63;;;7.90;99.90;;;;;;5010310;28;20930;-70
2023/11/17 09:56:03;;;;;;;3.35;0.35;;;8.00;99.90;;;;;;5010008;28;20389;-70
2023/11/17 09:58:30;;;;;;;3.30;0.20;;;8.00;99.90;;;;;;5010364;28;20420;-70
2023/11/17 10:00:57;;;;;;;3.30;0.30;;;8.00;99.90;;;;;;5010302;28;20767;-69
2023/11/17 10:03:28;;;;;;;4.00;1.00;;;7.90;92.70;;;;;;5010390;28;20417;-69
2023/11/17 10:05:58;;;;;;;3.30;0.20;;;8.00;99.90;;;;;;5009828;28;20404;-69
2023/11/17 10:08:25;;;;;;;7.20;0.90;;;8.00;91.20;;;;;;5010227;28;20388;-69
2023/11/17 10:10:50;;;;;;;3.53;0.73;;;7.90;91.50;;;;;;5010382;28;20755;-69
2023/11/17 10:13:18;;;;;;;4.40;0.60;;;7.80;96.80;;;;;;5010613;28;20428;-69
2023/11/17 10:15:50;;;;;;;3.30;0.20;;;7.80;96.10;;;;;;5018122;28;20403;-69
2023/11/17 10:18:31;;;;;;;3.80;0.80;;;7.80;99.90;;;;;;5030326;28;20411;-69
2023/11/17 10:20:57;;;;;;;5.70;0.80;;;7.80;92.70;;;;;;5029398;28;20430;-69
2023/11/17 10:23:24;;;;;;;4.30;0.40;;;7.90;99.90;;;;;;5029788;28;20391;-69
2023/11/17 10:25:54;;;;;;;3.40;0.40;;;7.90;98.90;;;;;;5029350;28;20434;-69
2023/11/17 10:28:20;;;;;;;4.60;0.30;;;8.00;96.60;;;;;;5029377;28;20959;-69
2023/11/17 10:30:47;;;;;;;3.50;0.40;;;8.10;78.00;;;;;;5030479;28;20799;-69
2023/11/17 10:33:36;;;;;;;3.30;0.20;;;7.80;51.80;;;;;;5030098;28;20414;-70
2023/11/17 10:36:11;;;;;;;3.90;0.75;;;7.80;76.10;;;;;;5028761;28;20399;-69
2023/11/17 10:38:38;;;;;;;4.00;0.73;;;7.70;89.00;;;;;;5029113;28;20989;-70
2023/11/17 10:41:33;;;;;;;3.40;0.40;;;7.80;95.10;;;;;;5029414;28;20415;-70
2023/11/17 10:44:02;;;;;;;3.40;0.50;;;7.90;90.30;;;;;;5029210;28;20976;-69
2023/11/17 10:46:29;;;;;;;3.40;0.40;;;7.80;94.20;;;;;;5029775;28;20721;-69
2023/11/17 10:48:58;;;;;;;4.00;1.00;;;7.80;99.90;;;;;;5029559;28;20399;-69
2023/11/17 10:51:24;;;;;;;3.50;0.50;;;8.00;93.80;;;;;;5029535;28;20394;-69
2023/11/17 10:54:12;;;;;;;3.60;0.50;;;7.90;57.10;;;;;;5029407;28;20419;-69
2023/11/17 10:56:39;;;;;;;4.50;1.40;;;8.00;78.00;;;;;;5029431;28;20409;-69
2023/11/17 10:59:09;;;;;;;3.50;0.50;;;8.10;75.20;;;;;;5029749;28;20384;-69
2023/11/17 11:01:40;;;;;;;3.30;0.20;;;8.10;22.30;;;;;;5029506;28;20422;-69
2023/11/17 11:04:09;;;;;;;3.40;0.30;;;7.90;23.30;;;;;;5029231;28;20395;-70
2023/11/17 11:06:38;;;;;;;3.40;0.30;;;7.80;24.90;;;;;;5029613;28;20395;-69
2023/11/17 11:09:05;;;;;;;3.60;0.50;;;7.70;43.80;;;;;;5029200;28;20757;-69
2023/11/17 11:11:32;;;;;;;3.50;0.60;;;7.60;68.10;;;;;;5029353;28;20865;-69
2023/11/17 11:14:00;;;;;;;6.95;1.05;;;7.70;90.10;;;;;;5029563;28;20442;-69
2023/11/17 11:16:31;;;;;;;3.30;0.30;;;7.80;92.50;;;;;;5015901;28;20424;-69
2023/11/17 11:18:59;;;;;;;3.30;0.20;;;7.90;92.20;;;;;;5009427;28;20967;-70
2023/11/17 11:21:35;;;;;;;3.30;0.20;;;7.90;47.30;;;;;;5008988;28;20397;-70
2023/11/17 11:24:04;;;;;;;3.40;0.30;;;8.00;50.80;;;;;;5009422;28;20484;-70
2023/11/17 11:26:32;;;;;;;3.33;0.20;;;8.20;38.90;;;;;;5008916;28;20399;-69
2023/11/17 11:28:58;;;;;;;3.30;0.28;;;8.30;40.10;;;;;;5009415;28;20392;-70
2023/11/17 11:31:25;;;;;;;3.50;0.40;;;8.40;18.00;;;;;;5009576;28;20748;-70
2023/11/17 11:33:52;;;;;;;3.70;0.50;;;8.40;4.10;;;;;;5009230;28;20915;-70
2023/11/17 11:36:18;;;;;;;3.30;0.20;;;8.30;1.00;;;;;;5008900;28;20381;-70
2023/11/17 11:38:47;;;;;;;3.70;0.90;;;8.10;1.00;;;;;;5009315;28;20408;-70
2023/11/17 11:41:15;;;;;;;3.60;0.60;;;8.20;1.00;;;;;;5009895;28;20404;-70
2023/11/17 11:43:45;;;;;;;3.50;0.45;;;8.30;1.00;;;;;;5009447;28;20393;-70
2023/11/17 11:46:15;;;;;;;6.38;0.90;;;8.20;1.00;;;;;;5009632;28;20482;-70
2023/11/17 11:48:43;;;;;;;3.40;0.40;;;8.20;1.00;;;;;;5011076;28;20436;-70
2023/11/17 11:51:11;;;;;;;3.30;0.40;;;8.20;1.00;;;;;;5012828;28;20460;-70
2023/11/17 11:53:57;;;;;;;4.50;1.05;;;8.20;1.00;;;;;;5012193;28;20420;-70
2023/11/17 11:56:36;;;;;;;4.30;0.80;;;8.40;1.00;;;;;;5012521;28;20531;-70
2023/11/17 11:59:05;;;;;;;4.93;1.08;;;8.60;1.00;;;;;;5012538;28;20389;-70
2023/11/17 12:01:33;;;;;;;4.40;0.70;;;8.60;1.00;;;;;;5012808;28;20404;-69
2023/11/17 12:04:00;;;;;;;3.40;0.50;;;8.50;1.00;;;;;;5012364;28;20757;-69
2023/11/17 12:06:28;;;;;;;4.65;0.60;;;8.30;1.00;;;;;;5022943;28;20410;-69
2023/11/17 12:08:58;;;;;;;4.18;1.20;;;8.40;1.00;;;;;;5031943;28;20862;-69
2023/11/17 12:11:49;;;;;;;4.65;0.90;;;8.30;1.00;;;;;;5032573;28;20399;-70
2023/11/17 12:14:16;;;;;;;3.80;0.95;;;8.40;1.00;;;;;;5032360;28;20423;-69
2023/11/17 12:16:54;;;;;;;3.70;0.77;;;8.20;1.00;;;;;;5032309;28;20395;-70
2023/11/17 12:19:24;;;;;;;5.35;1.92;;;8.30;1.00;;;;;;5031427;28;20765;-70
2023/11/17 12:21:50;;;;;;;4.70;1.00;;;8.30;1.00;;;;;;5031213;28;20406;-70
2023/11/17 12:24:27;;;;;;;4.90;1.30;;;8.20;1.00;;;;;;5020103;28;20407;-70
2023/11/17 12:26:55;;;;;;;8.30;1.30;;;8.30;1.00;;;;;;5012286;28;20792;-70
2023/11/17 12:29:24;;;;;;;5.30;1.40;;;8.20;1.00;;;;;;5031131;28;20949;-70
2023/11/17 12:31:54;;;;;;;4.40;1.00;;;8.30;1.00;;;;;;5029423;28;20753;-69
2023/11/17 12:34:20;;;;;;;4.97;0.93;;;8.30;1.00;;;;;;5015259;28;20455;-69
2023/11/17 12:36:46;;;;;;;5.25;0.98;;;8.50;1.00;;;;;;5016567;28;20398;-69
2023/11/17 12:39:15;;;;;;;4.20;1.00;;;8.60;1.00;;;;;;5036797;28;20391;-69
2023/11/17 12:41:43;;;;;;;4.00;0.90;;;8.70;1.00;;;;;;5031886;28;20487;-67
2023/11/17 12:44:16;;;;;;;4.05;0.80;;;8.80;1.00;;;;;;5031692;28;20746;-68
2023/11/17 12:46:43;;;;;;;5.05;1.00;;;8.70;1.00;;;;;;5031375;28;20387;-68
2023/11/17 12:49:09;;;;;;;4.07;1.10;;;8.90;1.00;;;;;;5028213;28;20402;-68
2023/11/17 12:51:35;;;;;;;4.75;1.17;;;8.90;1.00;;;;;;5012302;28;20385;-68
2023/11/17 12:54:05;;;;;;;4.15;0.80;;;9.00;1.00;;;;;;5028831;28;20410;-68
2023/11/17 12:56:30;;;;;;;3.60;0.65;;;9.10;1.00;;;;;;5026156;28;20893;-68
2023/11/17 12:58:57;;;;;;;4.00;0.70;;;8.90;1.00;;;;;;5017138;28;20403;-68
2023/11/17 13:01:25;;;;;;;4.45;0.70;;;8.90;1.00;;;;;;5031076;28;20525;-68
2023/11/17 13:03:56;;;;;;;3.50;0.60;;;8.60;1.00;;;;;;5023295;28;20424;-68